createdAt,value
2022-12-01T00:01:13.955Z,102850.50
2022-12-01T00:03:41.820Z,102850.50
2022-12-01T00:06:12.414Z,102859.25
2022-12-01T00:08:40.150Z,102852.94
2022-12-01T00:11:08.808Z,102853.75
2022-12-01T00:13:37.311Z,102859.91
2022-12-01T00:16:13.725Z,102861.47
2022-12-01T00:18:41.461Z,102854.41
2022-12-01T00:21:15.268Z,102851.53
2022-12-01T00:23:44.410Z,102860.31
2022-12-01T00:26:12.068Z,102862.13
2022-12-01T00:28:39.855Z,102848.16
2022-12-01T00:31:08.265Z,102851.53
2022-12-01T00:33:37.352Z,102853.25
2022-12-01T00:36:06.122Z,102860.94
2022-12-01T00:38:33.783Z,102853.75
2022-12-01T00:41:01.501Z,102852.06
2022-12-01T00:43:29.207Z,102857.38
2022-12-01T00:45:57.335Z,102860.81
2022-12-01T00:48:25.192Z,102859.88
2022-12-01T00:50:55.551Z,102852.81
2022-12-01T00:53:24.318Z,102855.53
2022-12-01T00:55:53.823Z,102854.50
2022-12-01T00:58:21.506Z,102851.94
2022-12-01T01:00:49.583Z,102853.75
2022-12-01T01:03:17.350Z,102859.88
2022-12-01T01:05:45.024Z,102856.38
2022-12-01T01:08:15.751Z,102853.97
2022-12-01T01:10:45.588Z,102863.47
2022-12-01T01:13:14.019Z,102873.31
2022-12-01T01:15:42.443Z,102870.81
2022-12-01T01:18:12.520Z,102871.63
2022-12-01T01:20:40.388Z,102876.81
2022-12-01T01:23:08.442Z,102872.38
2022-12-01T01:25:37.388Z,102877.44
2022-12-01T01:28:05.323Z,102880.94
2022-12-01T01:30:32.984Z,102873.97
2022-12-01T01:33:00.575Z,102880.09
2022-12-01T01:35:28.268Z,102882.63
2022-12-01T01:37:55.871Z,102877.31
2022-12-01T01:40:23.461Z,102882.53
2022-12-01T01:42:52.426Z,102885.16
2022-12-01T01:45:25.143Z,102883.47
2022-12-01T01:47:55.571Z,102887.91
2022-12-01T01:50:25.958Z,102889.81
2022-12-01T01:53:00.259Z,102887.19
2022-12-01T01:55:29.367Z,102891.81
2022-12-01T01:57:59.379Z,102884.75
2022-12-01T02:00:27.068Z,102882.31
2022-12-01T02:02:55.228Z,102885.06
2022-12-01T02:05:25.582Z,102892.03
2022-12-01T02:07:56.215Z,102884.97
2022-12-01T02:10:33.830Z,102892.25
2022-12-01T02:13:16.987Z,102879.16
2022-12-01T02:15:52.748Z,102892.38
2022-12-01T02:18:26.922Z,102897.88
2022-12-01T02:21:14.266Z,102890.88
2022-12-01T02:24:16.620Z,102885.69
2022-12-01T02:26:51.866Z,102889.31
2022-12-01T02:29:50.511Z,102886.66
2022-12-01T02:32:28.739Z,102886.66
2022-12-01T02:35:00.413Z,102883.19
2022-12-01T02:37:35.148Z,102875.25
2022-12-01T02:40:12.096Z,102875.25
2022-12-01T02:42:50.612Z,102879.59
2022-12-01T02:45:27.319Z,102886.88
2022-12-01T02:48:01.055Z,102881.38
2022-12-01T02:50:31.539Z,102882.97
2022-12-01T02:53:00.847Z,102878.75
2022-12-01T02:55:28.584Z,102875.03
2022-12-01T02:57:56.204Z,102873.25
2022-12-01T03:00:23.985Z,102866.25
2022-12-01T03:03:15.722Z,102871.44
2022-12-01T03:05:48.431Z,102869.09
2022-12-01T03:08:27.538Z,102874.31
2022-12-01T03:10:57.873Z,102867.31
2022-12-01T03:13:37.810Z,102873.25
2022-12-01T03:16:10.652Z,102869.75
2022-12-01T03:18:42.504Z,102881.16
2022-12-01T03:21:15.122Z,102879.38
2022-12-01T03:23:49.514Z,102878.53
2022-12-01T03:26:20.659Z,102873.34
2022-12-01T03:28:52.096Z,102868.91
2022-12-01T03:31:24.678Z,102871.66
2022-12-01T03:33:58.854Z,102874.19
2022-12-01T03:36:31.468Z,102871.53
2022-12-01T03:39:04.619Z,102869.84
2022-12-01T03:41:38.254Z,102878.75
2022-12-01T03:44:11.081Z,102884.66
2022-12-01T03:46:44.669Z,102880.19
2022-12-01T03:49:15.919Z,102886.34
2022-12-01T03:51:55.551Z,102879.97
2022-12-01T03:54:34.766Z,102875.88
2022-12-01T03:57:09.374Z,102881.25
2022-12-01T03:59:39.518Z,102874.19
2022-12-01T04:02:07.714Z,102877.69
2022-12-01T04:04:37.164Z,102876.59
2022-12-01T04:07:06.283Z,102886.25
2022-12-01T04:09:33.918Z,102887.09
2022-12-01T04:12:19.280Z,102891.41
2022-12-01T04:14:46.863Z,102886.88
2022-12-01T04:17:14.451Z,102890.34
2022-12-01T04:19:43.411Z,102886.88
2022-12-01T04:22:10.991Z,102893.84
2022-12-01T04:24:39.038Z,102892.03
2022-12-01T04:27:06.732Z,102890.25
2022-12-01T04:29:34.327Z,102896.59
2022-12-01T04:32:01.992Z,102895.53
2022-12-01T04:34:29.614Z,102891.19
2022-12-01T04:36:58.567Z,102891.09
2022-12-01T04:39:26.143Z,102894.47
2022-12-01T04:41:53.733Z,102897.03
2022-12-01T04:44:21.423Z,102897.75
2022-12-01T04:46:49.061Z,102898.59
2022-12-01T04:49:16.687Z,102906.53
2022-12-01T04:51:44.299Z,102902.91
2022-12-01T04:54:13.595Z,102901.13
2022-12-01T04:56:41.387Z,102908.13
2022-12-01T04:59:09.494Z,102912.47
2022-12-01T05:01:37.515Z,102904.53
2022-12-01T05:04:05.556Z,102910.75
2022-12-01T05:06:33.331Z,102908.97
2022-12-01T05:09:02.391Z,102915.19
2022-12-01T05:11:32.702Z,102912.69
2022-12-01T05:14:00.716Z,102917.19
2022-12-01T05:16:31.739Z,102911.19
2022-12-01T05:19:18.476Z,102913.91
2022-12-01T05:21:47.940Z,102918.38
2022-12-01T05:24:17.068Z,102909.59
2022-12-01T05:26:46.622Z,102919.34
2022-12-01T05:29:14.587Z,102915.97
2022-12-01T05:31:42.653Z,102922.19
2022-12-01T05:34:10.682Z,102918.59
2022-12-01T05:36:38.254Z,102925.56
2022-12-01T05:39:05.955Z,102914.13
2022-12-01T05:41:33.538Z,102920.41
2022-12-01T05:44:02.626Z,102920.41
2022-12-01T05:46:30.196Z,102921.25
2022-12-01T05:48:57.784Z,102923.97
2022-12-01T05:51:25.400Z,102925.56
2022-12-01T05:53:53.110Z,102923.03
2022-12-01T05:56:20.682Z,102922.06
2022-12-01T05:58:48.279Z,102929.06
2022-12-01T06:01:17.369Z,102928.13
2022-12-01T06:03:44.994Z,102929.78
2022-12-01T06:06:12.614Z,102938.47
2022-12-01T06:08:40.227Z,102941.00
2022-12-01T06:11:07.864Z,102941.84
2022-12-01T06:13:35.434Z,102947.13
2022-12-01T06:16:05.157Z,102938.34
2022-12-01T06:18:36.607Z,102934.78
2022-12-01T06:21:06.089Z,102933.72
2022-12-01T06:23:33.873Z,102937.28
2022-12-01T06:26:01.448Z,102947.06
2022-12-01T06:28:29.051Z,102939.22
2022-12-01T06:31:02.789Z,102943.00
2022-12-01T06:33:31.436Z,102941.13
2022-12-01T06:36:01.342Z,102948.06
2022-12-01T06:38:31.999Z,102950.63
2022-12-01T06:40:59.594Z,102949.69
2022-12-01T06:43:27.484Z,102957.84
2022-12-01T06:45:59.622Z,102952.84
2022-12-01T06:48:29.049Z,102957.06
2022-12-01T06:50:58.314Z,102955.91
2022-12-01T06:53:28.415Z,102957.63
2022-12-01T06:56:00.040Z,102954.22
2022-12-01T06:58:27.800Z,102963.66
2022-12-01T07:00:55.716Z,102960.06
2022-12-01T07:03:23.402Z,102958.03
2022-12-01T07:05:58.463Z,102961.50
2022-12-01T07:08:27.839Z,102964.06
2022-12-01T07:10:59.723Z,102965.75
2022-12-01T07:13:32.788Z,102970.00
2022-12-01T07:16:02.518Z,102970.72
2022-12-01T07:18:30.620Z,102977.72
2022-12-01T07:21:01.052Z,102968.81
2022-12-01T07:23:30.621Z,102983.75
2022-12-01T07:26:01.587Z,102969.66
2022-12-01T07:28:29.361Z,102970.59
2022-12-01T07:31:03.100Z,102967.88
2022-12-01T07:33:31.339Z,102981.94
2022-12-01T07:35:59.496Z,102974.09
2022-12-01T07:38:30.462Z,102978.53
2022-12-01T07:41:02.795Z,102981.31
2022-12-01T07:43:31.494Z,102975.06
2022-12-01T07:46:04.179Z,102985.66
2022-12-01T07:48:32.461Z,102984.59
2022-12-01T07:51:00.093Z,102988.09
2022-12-01T07:53:27.743Z,102983.53
2022-12-01T07:55:56.695Z,102986.91
2022-12-01T07:58:24.278Z,102987.63
2022-12-01T08:00:51.928Z,102993.75
2022-12-01T08:03:20.031Z,102994.53
2022-12-01T08:05:56.329Z,102996.09
2022-12-01T08:08:24.009Z,102992.47
2022-12-01T08:10:52.036Z,102995.03
2022-12-01T08:13:21.771Z,102993.97
2022-12-01T08:15:49.428Z,102998.31
2022-12-01T08:18:17.191Z,103011.34
2022-12-01T08:20:44.808Z,103006.78
2022-12-01T08:23:12.410Z,103002.22
2022-12-01T08:25:39.996Z,102999.56
2022-12-01T08:28:07.668Z,103006.56
2022-12-01T08:30:37.423Z,103008.25
2022-12-01T08:33:05.159Z,103009.84
2022-12-01T08:35:33.858Z,103006.13
2022-12-01T08:38:01.435Z,103011.19
2022-12-01T08:40:29.087Z,103009.41
2022-12-01T08:42:56.753Z,103012.78
2022-12-01T08:45:24.432Z,103011.09
2022-12-01T08:47:54.440Z,103011.72
2022-12-01T08:50:22.091Z,103011.50
2022-12-01T08:52:49.693Z,103010.56
2022-12-01T08:55:17.407Z,103006.19
2022-12-01T08:57:45.049Z,103015.63
2022-12-01T09:00:13.750Z,103018.16
2022-12-01T09:02:41.436Z,103010.13
2022-12-01T09:05:10.821Z,103013.38
2022-12-01T09:07:38.553Z,103017.50
2022-12-01T09:10:07.379Z,103021.13
2022-12-01T09:12:35.003Z,103014.97
2022-12-01T09:15:02.704Z,103019.19
2022-12-01T09:17:30.328Z,103019.19
2022-12-01T09:19:57.906Z,103020.03
2022-12-01T09:22:26.902Z,103021.75
2022-12-01T09:24:54.501Z,103022.69
2022-12-01T09:27:22.114Z,103015.47
2022-12-01T09:29:49.897Z,103014.31
2022-12-01T09:32:17.743Z,103014.31
2022-12-01T09:34:45.595Z,103012.38
2022-12-01T09:37:13.215Z,103011.44
2022-12-01T09:39:42.163Z,103014.84
2022-12-01T09:42:15.485Z,103019.06
2022-12-01T09:44:47.554Z,103016.63
2022-12-01T09:47:20.447Z,103011.97
2022-12-01T09:49:55.267Z,103014.53
2022-12-01T09:52:26.035Z,103009.00
2022-12-01T09:54:56.279Z,103008.66
2022-12-01T09:57:30.915Z,103013.50
2022-12-01T09:59:59.551Z,103005.25
2022-12-01T10:02:34.305Z,103005.84
2022-12-01T10:05:05.516Z,103014.00
2022-12-01T10:07:37.495Z,103004.66
2022-12-01T10:10:12.012Z,103007.94
2022-12-01T10:12:43.148Z,103000.94
2022-12-01T10:15:17.614Z,103002.81
2022-12-01T10:17:58.395Z,103002.13
2022-12-01T10:20:30.700Z,103003.69
2022-12-01T10:23:28.961Z,102990.84
2022-12-01T10:26:00.139Z,102989.63
2022-12-01T10:28:55.027Z,102982.53
2022-12-01T10:31:29.884Z,102983.25
2022-12-01T10:34:02.966Z,102985.81
2022-12-01T10:36:33.146Z,102994.84
2022-12-01T10:39:01.028Z,102994.50
2022-12-01T10:41:34.728Z,102989.31
2022-12-01T10:44:05.602Z,102986.66
2022-12-01T10:46:40.668Z,102986.06
2022-12-01T10:49:11.155Z,102983.78
2022-12-01T10:51:54.018Z,102985.19
2022-12-01T10:54:23.079Z,102989.25
2022-12-01T10:56:56.926Z,102988.41
2022-12-01T10:59:29.123Z,102988.97
2022-12-01T11:01:58.785Z,103006.59
2022-12-01T11:04:35.434Z,102991.13
2022-12-01T11:07:04.083Z,102984.59
2022-12-01T11:09:32.306Z,102987.69
2022-12-01T11:12:03.033Z,102997.91
2022-12-01T11:14:43.749Z,102992.50
2022-12-01T11:17:34.341Z,102992.59
2022-12-01T11:20:26.554Z,102994.53
2022-12-01T11:22:54.482Z,102994.31
2022-12-01T11:25:22.954Z,102980.19
2022-12-01T11:27:57.474Z,102995.78
2022-12-01T11:30:27.261Z,102981.31
2022-12-01T11:32:57.963Z,102982.91
2022-12-01T11:35:28.838Z,102970.50
2022-12-01T11:38:29.178Z,102980.28
2022-12-01T11:40:50.573Z,102967.84
2022-12-01T11:43:28.511Z,102977.72
2022-12-01T11:45:59.579Z,102968.31
2022-12-01T11:48:29.231Z,102969.28
2022-12-01T11:51:08.352Z,102954.56
2022-12-01T11:53:38.268Z,102954.47
2022-12-01T11:56:19.846Z,102958.28
2022-12-01T11:58:51.113Z,102964.66
2022-12-01T12:01:33.183Z,102965.84
2022-12-01T12:04:17.250Z,102964.38
2022-12-01T12:06:53.422Z,102961.94
2022-12-01T12:09:44.743Z,102963.25
2022-12-01T12:12:27.187Z,102961.66
2022-12-01T12:15:06.416Z,102959.75
2022-12-01T12:17:48.729Z,102958.38
2022-12-01T12:20:28.524Z,102957.09
2022-12-01T12:23:09.520Z,102954.97
2022-12-01T12:25:52.314Z,102959.50
2022-12-01T12:28:32.580Z,102964.94
2022-12-01T12:31:11.365Z,102964.94
2022-12-01T12:34:10.700Z,102966.97
2022-12-01T12:36:47.973Z,102961.66
2022-12-01T12:39:42.738Z,102961.78
2022-12-01T12:42:20.934Z,102965.88
2022-12-01T12:44:52.668Z,102962.50
2022-12-01T12:47:36.410Z,102963.47
2022-12-01T12:50:23.544Z,102967.09
2022-12-01T12:52:55.739Z,102974.28
2022-12-01T12:55:27.655Z,102980.19
2022-12-01T12:57:59.995Z,102978.53
2022-12-01T13:00:29.066Z,102978.75
2022-12-01T13:03:04.803Z,102978.09
2022-12-01T13:05:39.909Z,102978.19
2022-12-01T13:08:12.632Z,102976.50
2022-12-01T13:10:43.730Z,102978.09
2022-12-01T13:13:20.292Z,102976.91
2022-12-01T13:15:50.581Z,102972.56
2022-12-01T13:18:34.483Z,102970.81
2022-12-01T13:21:03.658Z,102969.50
2022-12-01T13:23:32.412Z,102969.06
2022-12-01T13:26:02.526Z,102966.97
2022-12-01T13:28:36.019Z,102968.16
2022-12-01T13:31:06.615Z,102963.06
2022-12-01T13:33:37.330Z,102965.94
2022-12-01T13:39:01.012Z,102945.41
2022-12-01T13:41:33.059Z,102943.72
2022-12-01T13:44:04.855Z,102948.59
2022-12-01T13:46:50.302Z,102940.66
2022-12-01T13:49:36.831Z,102933.66
2022-12-01T13:52:31.372Z,102934.75
2022-12-01T13:55:19.682Z,102930.63
2022-12-01T13:57:50.368Z,102940.38
2022-12-01T14:00:27.861Z,102935.63
2022-12-01T14:03:33.332Z,102933.94
2022-12-01T14:06:10.776Z,102936.47
2022-12-01T14:08:46.936Z,102934.03
2022-12-01T14:11:22.325Z,102936.06
2022-12-01T14:13:56.052Z,102934.47
2022-12-01T14:16:24.741Z,102936.50
2022-12-01T14:18:56.250Z,102935.69
2022-12-01T14:21:46.871Z,102935.91
2022-12-01T14:24:24.825Z,102937.72
2022-12-01T14:26:53.787Z,102940.28
2022-12-01T14:29:30.607Z,102947.13
2022-12-01T14:32:22.223Z,102945.56
2022-12-01T14:35:12.535Z,102947.56
2022-12-01T14:37:49.044Z,102944.19
2022-12-01T14:40:30.347Z,102957.28
2022-12-01T14:43:17.023Z,102947.66
2022-12-01T14:45:56.259Z,102949.69
2022-12-01T14:48:29.064Z,102950.50
2022-12-01T14:51:12.005Z,102950.00
2022-12-01T14:53:45.848Z,102949.91
2022-12-01T14:56:17.412Z,102956.78
2022-12-01T14:58:53.307Z,102947.34
2022-12-01T15:01:22.878Z,102948.19
2022-12-01T15:03:52.731Z,102952.44
2022-12-01T15:06:23.265Z,102949.28
2022-12-01T15:09:32.068Z,102955.19
2022-12-01T15:11:56.598Z,102955.19
2022-12-01T15:14:30.307Z,102957.84
2022-12-01T15:16:58.242Z,102955.06
2022-12-01T15:19:31.705Z,102950.63
2022-12-01T15:22:00.704Z,102956.00
2022-12-01T15:24:30.979Z,102948.28
2022-12-01T15:27:03.671Z,102938.69
2022-12-01T15:29:33.019Z,102939.63
2022-12-01T15:32:03.573Z,102948.41
2022-12-01T15:34:34.116Z,102943.00
2022-12-01T15:37:06.008Z,102948.00
2022-12-01T15:39:38.195Z,102944.28
2022-12-01T15:42:06.427Z,102946.94
2022-12-01T15:44:36.167Z,102943.66
2022-12-01T15:47:31.411Z,102940.78
2022-12-01T15:49:59.037Z,102948.63
2022-12-01T15:52:26.727Z,102950.31
2022-12-01T15:54:57.480Z,102945.97
2022-12-01T15:57:25.512Z,102948.63
2022-12-01T15:59:55.762Z,102946.84
2022-12-01T16:02:30.161Z,102944.06
2022-12-01T16:05:03.403Z,102953.50
2022-12-01T16:08:04.929Z,102948.94
2022-12-01T16:10:31.379Z,102946.19
2022-12-01T16:13:36.111Z,102958.34
2022-12-01T16:16:29.458Z,102944.91
2022-12-01T16:18:59.802Z,102950.94
2022-12-01T16:21:28.310Z,102942.88
2022-12-01T16:24:01.075Z,102947.22
2022-12-01T16:26:31.158Z,102943.63
2022-12-01T16:28:59.826Z,102948.06
2022-12-01T16:31:28.223Z,102945.31
2022-12-01T16:34:13.942Z,102947.22
2022-12-01T16:36:51.422Z,102953.78
2022-12-01T16:39:19.040Z,102951.34
2022-12-01T16:41:48.129Z,102952.44
2022-12-01T16:44:32.151Z,102952.50
2022-12-01T16:46:59.770Z,102956.13
2022-12-01T16:49:28.548Z,102957.94
2022-12-01T16:51:57.376Z,102950.94
2022-12-01T16:54:25.812Z,102962.28
2022-12-01T16:56:54.847Z,102963.00
2022-12-01T16:59:22.435Z,102966.59
2022-12-01T17:01:50.092Z,102964.91
2022-12-01T17:04:17.988Z,102970.22
2022-12-01T17:06:45.655Z,102974.53
2022-12-01T17:09:13.288Z,102966.38
2022-12-01T17:11:40.879Z,102967.13
2022-12-01T17:14:09.936Z,102963.84
2022-12-01T17:16:38.420Z,102977.28
2022-12-01T17:19:06.122Z,102973.78
2022-12-01T17:21:33.719Z,102980.25
2022-12-01T17:24:01.286Z,102971.34
2022-12-01T17:26:28.891Z,102973.38
2022-12-01T17:28:56.527Z,102979.28
2022-12-01T17:31:25.570Z,102975.47
2022-12-01T17:33:53.227Z,102977.06
2022-12-01T17:36:20.878Z,102972.50
2022-12-01T17:38:50.407Z,102964.50
2022-12-01T17:41:21.722Z,102974.84
2022-12-01T17:43:49.434Z,102975.72
2022-12-01T17:46:17.225Z,102971.06
2022-12-01T17:48:47.690Z,102970.00
2022-12-01T17:51:15.979Z,102977.81
2022-12-01T17:53:43.654Z,102968.94
2022-12-01T17:56:14.399Z,102973.50
2022-12-01T17:58:42.533Z,102964.59
2022-12-01T18:01:16.207Z,102975.06
2022-12-01T18:03:44.535Z,102975.81
2022-12-01T18:06:14.014Z,102970.41
2022-12-01T18:08:42.468Z,102971.25
2022-12-01T18:11:13.970Z,102969.34
2022-12-01T18:13:43.795Z,102970.63
2022-12-01T18:16:13.532Z,102968.06
2022-12-01T18:18:41.612Z,102982.25
2022-12-01T18:21:11.180Z,102977.06
2022-12-01T18:23:40.598Z,102973.69
2022-12-01T18:26:15.438Z,102974.63
2022-12-01T18:28:44.054Z,102972.00
2022-12-01T18:31:14.167Z,102975.50
2022-12-01T18:33:44.844Z,102972.41
2022-12-01T18:36:14.880Z,102975.06
2022-12-01T18:38:44.551Z,102970.63
2022-12-01T18:41:12.203Z,102974.84
2022-12-01T18:43:39.864Z,102976.34
2022-12-01T18:46:08.011Z,102974.72
2022-12-01T18:48:36.172Z,102976.44
2022-12-01T18:51:04.262Z,102977.38
2022-12-01T18:53:32.575Z,102980.66
2022-12-01T18:56:04.280Z,102978.34
2022-12-01T18:58:32.535Z,102969.66
2022-12-01T19:01:00.313Z,102983.00
2022-12-01T19:03:30.073Z,102971.47
2022-12-01T19:05:58.092Z,102981.94
2022-12-01T19:08:26.127Z,102967.97
2022-12-01T19:10:59.525Z,102966.06
2022-12-01T19:13:28.746Z,102970.28
2022-12-01T19:15:56.406Z,102971.16
2022-12-01T19:18:24.059Z,102974.53
2022-12-01T19:20:51.916Z,102967.44
2022-12-01T19:23:19.548Z,102970.84
2022-12-01T19:25:47.148Z,102964.59
2022-12-01T19:28:14.956Z,102964.38
2022-12-01T19:30:48.078Z,102964.28
2022-12-01T19:33:16.328Z,102965.22
2022-12-01T19:35:43.914Z,102972.44
2022-12-01T19:38:11.491Z,102974.31
2022-12-01T19:40:39.443Z,102966.38
2022-12-01T19:43:07.063Z,102969.16
2022-12-01T19:45:38.084Z,102970.84
2022-12-01T19:48:07.744Z,102970.09
2022-12-01T19:50:36.511Z,102972.00
2022-12-01T19:53:04.980Z,102965.78
2022-12-01T19:55:32.584Z,102973.69
2022-12-01T19:58:00.169Z,102973.69
2022-12-01T20:00:27.762Z,102971.06
2022-12-01T20:02:55.357Z,102970.28
2022-12-01T20:05:24.516Z,102970.41
2022-12-01T20:07:52.210Z,102964.28
2022-12-01T20:10:20.487Z,102967.00
2022-12-01T20:12:48.246Z,102970.63
2022-12-01T20:15:16.159Z,102967.97
2022-12-01T20:17:44.290Z,102974.13
2022-12-01T20:20:13.172Z,102971.47
2022-12-01T20:22:42.143Z,102962.56
2022-12-01T20:25:10.059Z,102971.47
2022-12-01T20:27:37.695Z,102966.91
2022-12-01T20:30:06.286Z,102965.22
2022-12-01T20:32:34.565Z,102961.72
2022-12-01T20:35:03.514Z,102968.94
2022-12-01T20:37:31.323Z,102965.44
2022-12-01T20:40:00.256Z,102959.41
2022-12-01T20:42:27.843Z,102950.63
2022-12-01T20:44:55.508Z,102958.47
2022-12-01T20:47:23.116Z,102961.00
2022-12-01T20:49:54.204Z,102960.13
2022-12-01T20:52:25.676Z,102962.78
2022-12-01T20:54:53.249Z,102956.66
2022-12-01T20:57:22.199Z,102966.28
2022-12-01T20:59:49.786Z,102960.13
2022-12-01T21:02:17.403Z,102961.13
2022-12-01T21:04:45.171Z,102959.28
2022-12-01T21:07:12.757Z,102965.56
2022-12-01T21:09:40.561Z,102962.91
2022-12-01T21:12:31.336Z,102967.34
2022-12-01T21:15:08.913Z,102975.38
2022-12-01T21:17:40.782Z,102967.44
2022-12-01T21:20:21.323Z,102975.38
2022-12-01T21:22:50.547Z,102968.28
2022-12-01T21:25:20.643Z,102963.13
2022-12-01T21:27:48.863Z,102953.28
2022-12-01T21:30:20.989Z,102962.16
2022-12-01T21:32:49.695Z,102967.56
2022-12-01T21:35:20.093Z,102961.75
2022-12-01T21:37:48.623Z,102968.81
2022-12-01T21:40:26.931Z,102960.97
2022-12-01T21:42:54.542Z,102969.13
2022-12-01T21:45:27.018Z,102966.81
2022-12-01T21:47:58.263Z,102955.50
2022-12-01T21:50:27.272Z,102965.09
2022-12-01T21:52:54.888Z,102963.63
2022-12-01T21:55:35.801Z,102957.50
2022-12-01T21:58:03.935Z,102952.22
2022-12-01T22:00:34.908Z,102958.34
2022-12-01T22:03:19.248Z,102961.81
2022-12-01T22:06:13.455Z,102956.75
2022-12-01T22:08:38.289Z,102952.50
2022-12-01T22:11:12.205Z,102952.63
2022-12-01T22:13:42.527Z,102951.78
2022-12-01T22:16:15.647Z,102952.63
2022-12-01T22:18:46.150Z,102963.19
2022-12-01T22:21:32.715Z,102962.56
2022-12-01T22:24:13.069Z,102961.69
2022-12-01T22:26:44.051Z,102961.69
2022-12-01T22:29:26.283Z,102967.00
2022-12-01T22:32:07.959Z,102960.13
2022-12-01T22:34:35.747Z,102964.56
2022-12-01T22:37:03.603Z,102962.03
2022-12-01T22:39:33.946Z,102960.41
2022-12-01T22:42:07.159Z,102957.88
2022-12-01T22:44:34.853Z,102957.16
2022-12-01T22:47:04.564Z,102963.38
2022-12-01T22:49:32.150Z,102957.25
2022-12-01T22:52:02.161Z,102927.25
2022-12-01T22:54:39.754Z,102939.53
2022-12-01T22:57:26.335Z,102935.91
2022-12-01T22:59:54.883Z,102938.75
2022-12-01T23:02:26.252Z,102943.94
2022-12-01T23:04:57.495Z,102940.34
2022-12-01T23:07:31.303Z,102947.19
2022-12-01T23:10:05.322Z,102945.53
2022-12-01T23:12:34.967Z,102951.56
2022-12-01T23:15:17.562Z,102956.94
2022-12-01T23:17:46.588Z,102961.06
2022-12-01T23:20:27.376Z,102953.97
2022-12-01T23:22:56.015Z,102946.88
2022-12-01T23:25:24.788Z,102946.88
2022-12-01T23:27:54.280Z,102938.09
2022-12-01T23:30:23.279Z,102944.56
2022-12-01T23:33:04.301Z,102938.72
2022-12-01T23:35:40.042Z,102944.97
2022-12-01T23:38:15.188Z,102946.84
2022-12-01T23:40:42.838Z,102942.41
2022-12-01T23:43:16.714Z,102942.34
2022-12-01T23:45:45.536Z,102942.22
2022-12-01T23:48:20.154Z,102942.22
2022-12-01T23:50:50.233Z,102950.13
2022-12-01T23:53:26.218Z,102945.91
2022-12-01T23:55:53.846Z,102941.97
2022-12-01T23:58:21.575Z,102937.88
